createdAt,value
2018-05-01T00:00:06.725Z,1000.48
2018-05-01T00:01:15.556Z,1000.59
2018-05-01T00:02:24.385Z,1000.42
2018-05-01T00:03:33.419Z,1000.69
2018-05-01T00:04:42.252Z,1000.66
2018-05-01T00:05:51.628Z,1000.55
2018-05-01T00:07:00.731Z,1000.7
2018-05-01T00:08:09.564Z,1000.66
2018-05-01T00:09:18.495Z,1000.67
2018-05-01T00:10:27.330Z,1000.69
2018-05-01T00:11:36.159Z,1000.67
2018-05-01T00:12:44.992Z,1000.63
2018-05-01T00:13:53.825Z,1000.72
2018-05-01T00:15:02.807Z,1000.72
2018-05-01T00:16:11.652Z,1000.78
2018-05-01T00:17:20.484Z,1000.76
2018-05-01T00:18:29.584Z,1000.74
2018-05-01T00:19:38.417Z,1000.8
2018-05-01T00:20:47.448Z,1000.78
2018-05-01T00:21:56.279Z,1000.82
2018-05-01T00:23:05.109Z,1000.83
2018-05-01T00:24:13.940Z,1000.77
2018-05-01T00:25:22.772Z,1000.78
2018-05-01T00:26:31.978Z,1000.82
2018-05-01T00:27:40.807Z,1000.82
2018-05-01T00:28:49.638Z,1000.85
2018-05-01T00:29:58.468Z,1000.76
2018-05-01T00:31:07.301Z,1000.79
2018-05-01T00:32:16.132Z,1000.82
2018-05-01T00:33:25.237Z,1000.82
2018-05-01T00:34:34.342Z,1000.87
2018-05-01T00:35:43.176Z,1000.89
2018-05-01T00:36:52.279Z,1000.82
2018-05-01T00:38:01.109Z,1000.87
2018-05-01T00:39:09.943Z,1000.76
2018-05-01T00:40:18.776Z,1000.76
2018-05-01T00:41:27.605Z,1000.75
2018-05-01T00:42:36.436Z,1000.73
2018-05-01T00:43:45.268Z,1000.75
2018-05-01T00:44:54.100Z,1000.69
2018-05-01T00:46:02.934Z,1000.68
2018-05-01T00:47:11.768Z,1000.72
2018-05-01T00:48:20.599Z,1000.76
2018-05-01T00:49:29.582Z,1000.72
2018-05-01T00:50:38.413Z,1000.73
2018-05-01T00:51:47.325Z,1000.77
2018-05-01T00:52:56.072Z,1000.73
2018-05-01T00:54:04.908Z,1000.68
2018-05-01T00:55:14.164Z,1000.62
2018-05-01T00:56:22.998Z,1000.57
2018-05-01T00:57:32.104Z,1000.63
2018-05-01T00:58:40.944Z,1000.65
2018-05-01T00:59:49.771Z,1000.63
2018-05-01T01:00:58.604Z,1000.66
2018-05-01T01:02:07.718Z,1000.66
2018-05-01T01:03:16.827Z,1000.62
2018-05-01T01:04:25.932Z,1000.56
2018-05-01T01:05:34.766Z,1000.59
2018-05-01T01:06:43.878Z,1000.65
2018-05-01T01:07:52.710Z,1000.52
2018-05-01T01:09:01.540Z,1000.56
2018-05-01T01:10:10.374Z,1000.55
2018-05-01T01:11:19.207Z,1000.56
2018-05-01T01:12:28.039Z,1000.55
2018-05-01T01:13:37.156Z,1000.55
2018-05-01T01:14:45.984Z,1000.49
2018-05-01T01:15:54.819Z,1000.52
2018-05-01T01:17:03.923Z,1000.49
2018-05-01T01:18:12.901Z,1000.44
2018-05-01T01:19:21.737Z,1000.44
2018-05-01T01:20:30.570Z,1000.45
2018-05-01T01:21:39.679Z,1000.46
2018-05-01T01:22:48.512Z,1000.38
2018-05-01T01:23:57.448Z,1000.36
2018-05-01T01:25:06.280Z,1000.39
2018-05-01T01:26:15.112Z,1000.38
2018-05-01T01:27:23.946Z,1000.37
2018-05-01T01:28:32.781Z,1000.37
2018-05-01T01:29:41.612Z,1000.38
2018-05-01T01:30:50.721Z,1000.48
2018-05-01T01:31:59.554Z,1000.36
2018-05-01T01:33:08.385Z,1000.42
2018-05-01T01:34:17.219Z,1000.43
2018-05-01T01:35:26.203Z,1000.49
2018-05-01T01:36:35.036Z,1000.45
2018-05-01T01:37:43.871Z,1000.43
2018-05-01T01:38:52.979Z,1000.54
2018-05-01T01:40:02.089Z,1000.52
2018-05-01T01:41:11.070Z,1000.46
2018-05-01T01:42:19.902Z,1000.48
2018-05-01T01:43:28.734Z,1000.53
2018-05-01T01:44:37.568Z,1000.53
2018-05-01T01:45:46.684Z,1000.54
2018-05-01T01:46:55.764Z,1000.65
2018-05-01T01:48:04.595Z,1000.5
2018-05-01T01:49:13.430Z,1000.58
2018-05-01T01:50:22.536Z,1000.62
2018-05-01T01:51:31.367Z,1000.47
2018-05-01T01:52:40.199Z,1000.47
2018-05-01T01:53:49.034Z,1000.51
2018-05-01T01:54:57.867Z,1000.62
2018-05-01T01:56:06.990Z,1000.62
2018-05-01T01:57:15.823Z,1000.65
2018-05-01T01:58:24.710Z,1000.61
2018-05-01T01:59:33.543Z,1000.59
2018-05-01T02:00:42.652Z,1000.59
2018-05-01T02:01:51.757Z,1000.65
2018-05-01T02:03:00.864Z,1000.59
2018-05-01T02:04:10.132Z,1000.58
2018-05-01T02:05:18.958Z,1000.65
2018-05-01T02:06:27.789Z,1000.63
2018-05-01T02:07:36.897Z,1000.63
2018-05-01T02:08:45.728Z,1000.67
2018-05-01T02:09:54.860Z,1000.69
2018-05-01T02:11:03.690Z,1000.65
2018-05-01T02:12:12.521Z,1000.66
2018-05-01T02:13:21.351Z,1000.67
2018-05-01T02:14:30.184Z,1000.65
2018-05-01T02:15:39.166Z,1000.66
2018-05-01T02:16:48.003Z,1000.67
2018-05-01T02:17:56.831Z,1000.65
2018-05-01T02:19:05.664Z,1000.65
2018-05-01T02:20:14.493Z,1000.74
2018-05-01T02:21:23.575Z,1000.59
2018-05-01T02:22:32.403Z,1000.65
2018-05-01T02:23:41.236Z,1000.58
2018-05-01T02:24:50.623Z,1000.62
2018-05-01T02:25:59.728Z,1000.61
2018-05-01T02:27:08.611Z,1000.65
2018-05-01T02:28:17.994Z,1000.62
2018-05-01T02:29:27.103Z,1000.67
2018-05-01T02:30:36.027Z,1000.61
2018-05-01T02:31:44.780Z,1000.52
2018-05-01T02:32:53.984Z,1000.55
2018-05-01T02:34:02.872Z,1000.55
2018-05-01T02:35:11.988Z,1000.53
2018-05-01T02:36:21.372Z,1000.64
2018-05-01T02:37:30.491Z,1000.76
2018-05-01T02:38:39.899Z,1000.6
2018-05-01T02:39:49.280Z,1000.5
2018-05-01T02:40:58.394Z,1000.57
2018-05-01T02:42:07.857Z,1000.56
2018-05-01T02:43:16.963Z,1000.58
2018-05-01T02:44:26.174Z,1000.58
2018-05-01T02:45:35.284Z,1000.59
2018-05-01T02:46:44.960Z,1000.6
2018-05-01T02:47:53.792Z,1000.51
2018-05-01T02:49:02.624Z,1000.55
2018-05-01T02:50:12.160Z,1000.53
2018-05-01T02:51:21.270Z,1000.68
2018-05-01T02:52:30.390Z,1000.5
2018-05-01T02:53:40.045Z,1000.52
2018-05-01T02:54:49.425Z,1000.47
2018-05-01T02:55:58.631Z,1000.57
2018-05-01T02:57:07.742Z,1000.56
2018-05-01T02:58:17.123Z,1000.46
2018-05-01T02:59:26.517Z,1000.62
2018-05-01T03:00:35.347Z,1000.62
2018-05-01T03:01:44.755Z,1000.58
2018-05-01T03:02:53.863Z,1000.52
2018-05-01T03:04:02.972Z,1000.48
2018-05-01T03:05:12.079Z,1000.52
2018-05-01T03:06:20.913Z,1000.54
2018-05-01T03:07:30.023Z,1000.48
2018-05-01T03:08:39.124Z,1000.51
2018-05-01T03:09:48.269Z,1000.51
2018-05-01T03:10:57.074Z,1000.52
2018-05-01T03:12:06.466Z,1000.32
2018-05-01T03:13:16.227Z,1000.57
2018-05-01T03:14:25.330Z,1000.58
2018-05-01T03:15:34.432Z,1000.45
2018-05-01T03:16:43.266Z,1000.49
2018-05-01T03:17:52.098Z,1000.48
2018-05-01T03:19:01.516Z,1000.47
2018-05-01T03:20:10.343Z,1000.48
2018-05-01T03:21:19.175Z,1000.45
2018-05-01T03:22:28.006Z,1000.51
2018-05-01T03:23:36.834Z,1000.5
2018-05-01T03:24:45.966Z,1000.49
2018-05-01T03:25:54.801Z,1000.37
2018-05-01T03:27:03.910Z,1000.36
2018-05-01T03:28:13.016Z,1000.38
2018-05-01T03:29:21.847Z,1000.38
2018-05-01T03:30:30.937Z,1000.38
2018-05-01T03:31:40.323Z,1000.44
2018-05-01T03:32:49.713Z,1000.36
2018-05-01T03:33:58.543Z,1000.44
2018-05-01T03:35:07.648Z,1000.38
2018-05-01T03:36:16.780Z,1000.41
2018-05-01T03:37:25.609Z,1000.39
2018-05-01T03:38:34.439Z,1000.41
2018-05-01T03:39:43.273Z,1000.41
2018-05-01T03:40:52.101Z,1000.4
2018-05-01T03:42:01.305Z,1000.39
2018-05-01T03:43:10.138Z,1000.33
2018-05-01T03:44:18.968Z,1000.38
2018-05-01T03:45:27.796Z,1000.47
2018-05-01T03:46:36.626Z,1000.45
2018-05-01T03:47:45.608Z,1000.48
2018-05-01T03:48:54.713Z,1000.31
2018-05-01T03:50:03.543Z,1000.34
2018-05-01T03:51:12.376Z,1000.41
2018-05-01T03:52:21.202Z,1000.3
2018-05-01T03:53:30.234Z,1000.35
2018-05-01T03:54:39.066Z,1000.43
2018-05-01T03:55:47.963Z,1000.4
2018-05-01T03:56:56.727Z,1000.35
2018-05-01T03:58:05.558Z,1000.43
2018-05-01T03:59:14.436Z,1000.33
2018-05-01T04:00:23.271Z,1000.33
2018-05-01T04:01:32.100Z,1000.38
2018-05-01T04:02:40.928Z,1000.49
2018-05-01T04:03:49.757Z,1000.38
2018-05-01T04:04:58.586Z,1000.35
2018-05-01T04:06:07.413Z,1000.38
2018-05-01T04:07:16.242Z,1000.48
2018-05-01T04:08:25.075Z,1000.4
2018-05-01T04:09:33.906Z,1000.35
2018-05-01T04:10:42.787Z,1000.33
2018-05-01T04:11:51.617Z,1000.34
2018-05-01T04:13:00.724Z,1000.44
2018-05-01T04:14:09.560Z,1000.44
2018-05-01T04:15:18.390Z,1000.4
2018-05-01T04:16:27.520Z,1000.43
2018-05-01T04:17:36.350Z,1000.43
2018-05-01T04:18:45.181Z,1000.47
2018-05-01T04:19:54.283Z,1000.57
2018-05-01T04:21:03.395Z,1000.41
2018-05-01T04:22:12.476Z,1000.46
2018-05-01T04:23:21.579Z,1000.54
2018-05-01T04:24:30.410Z,1000.38
2018-05-01T04:25:39.245Z,1000.48
2018-05-01T04:26:48.727Z,1000.52
2018-05-01T04:27:57.711Z,1000.49
2018-05-01T04:29:06.819Z,1000.48
2018-05-01T04:30:15.650Z,1000.39
2018-05-01T04:31:24.480Z,1000.54
2018-05-01T04:32:33.309Z,1000.53
2018-05-01T04:33:42.290Z,1000.36
2018-05-01T04:34:51.116Z,1000.56
2018-05-01T04:35:59.946Z,1000.53
2018-05-01T04:37:09.053Z,1000.53
2018-05-01T04:38:17.894Z,1000.51
2018-05-01T04:39:26.817Z,1000.59
2018-05-01T04:40:35.924Z,1000.65
2018-05-01T04:41:44.760Z,1000.56
2018-05-01T04:42:53.585Z,1000.66
2018-05-01T04:44:02.413Z,1000.52
2018-05-01T04:45:11.544Z,1000.7
2018-05-01T04:46:20.372Z,1000.63
2018-05-01T04:47:29.208Z,1000.55
2018-05-01T04:48:38.314Z,1000.55
2018-05-01T04:49:47.147Z,1000.61
2018-05-01T04:50:56.134Z,1000.54
2018-05-01T04:52:04.960Z,1000.56
2018-05-01T04:53:13.789Z,1000.48
2018-05-01T04:54:22.619Z,1000.63
2018-05-01T04:55:31.447Z,1000.62
2018-05-01T04:56:40.327Z,1000.62
2018-05-01T04:57:49.163Z,1000.66
2018-05-01T04:58:57.989Z,1000.75
2018-05-01T05:00:06.820Z,1000.64
2018-05-01T05:01:15.653Z,1000.58
2018-05-01T05:02:24.481Z,1000.57
2018-05-01T05:03:33.312Z,1000.58
2018-05-01T05:04:42.145Z,1000.62
2018-05-01T05:05:50.974Z,1000.61
2018-05-01T05:07:00.084Z,1000.61
2018-05-01T05:08:09.288Z,1000.65
2018-05-01T05:09:18.118Z,1000.53
2018-05-01T05:10:27.275Z,1000.6
2018-05-01T05:11:36.106Z,1000.52
2018-05-01T05:12:45.485Z,1000.64
2018-05-01T05:13:54.417Z,1000.64
2018-05-01T05:15:03.244Z,1000.63
2018-05-01T05:16:12.073Z,1000.66
2018-05-01T05:17:20.900Z,1000.64
2018-05-01T05:18:29.730Z,1000.62
2018-05-01T05:19:38.760Z,1000.66
2018-05-01T05:20:47.591Z,1000.59
2018-05-01T05:21:56.423Z,1000.75
2018-05-01T05:23:05.255Z,1000.67
2018-05-01T05:24:14.083Z,1000.63
2018-05-01T05:25:22.963Z,1000.68
2018-05-01T05:26:31.793Z,1000.6
2018-05-01T05:27:40.895Z,1000.54
2018-05-01T05:28:50.275Z,1000.67
2018-05-01T05:29:59.108Z,1000.69
2018-05-01T05:31:08.039Z,1000.64
2018-05-01T05:32:16.866Z,1000.66
2018-05-01T05:33:25.696Z,1000.63
2018-05-01T05:34:34.530Z,1000.61
2018-05-01T05:35:43.644Z,1000.69
2018-05-01T05:36:52.742Z,1000.61
2018-05-01T05:38:01.571Z,1000.67
2018-05-01T05:39:10.400Z,1000.74
2018-05-01T05:40:19.227Z,1000.56
2018-05-01T05:41:28.059Z,1000.71
2018-05-01T05:42:37.188Z,1000.64
2018-05-01T05:43:46.296Z,1000.74
2018-05-01T05:44:55.123Z,1000.58
2018-05-01T05:46:03.954Z,1000.7
2018-05-01T05:47:12.785Z,1000.65
2018-05-01T05:48:21.771Z,1000.75
2018-05-01T05:49:30.876Z,1000.73
2018-05-01T05:50:39.706Z,1000.65
2018-05-01T05:51:48.539Z,1000.61
2018-05-01T05:52:57.366Z,1000.73
2018-05-01T05:54:06.630Z,1000.68
2018-05-01T05:55:15.736Z,1000.59
2018-05-01T05:56:24.564Z,1000.69
2018-05-01T05:57:33.394Z,1000.53
2018-05-01T05:58:42.225Z,1000.73
2018-05-01T05:59:51.483Z,1000.8
2018-05-01T06:01:00.370Z,1000.68
2018-05-01T06:02:09.150Z,1000.64
2018-05-01T06:03:17.993Z,1000.58
2018-05-01T06:04:27.095Z,1000.69
2018-05-01T06:05:35.924Z,1000.75
2018-05-01T06:06:45.044Z,1000.83
2018-05-01T06:07:53.881Z,1000.75
2018-05-01T06:09:03.265Z,1000.82
2018-05-01T06:10:12.093Z,1000.82
2018-05-01T06:11:20.928Z,1000.79
2018-05-01T06:12:29.753Z,1000.81
2018-05-01T06:13:38.893Z,1000.88
2018-05-01T06:14:48.017Z,1000.88
2018-05-01T06:15:56.847Z,1000.77
2018-05-01T06:17:05.926Z,1000.9
2018-05-01T06:18:14.759Z,1000.94
2018-05-01T06:19:23.864Z,1000.84
2018-05-01T06:20:32.695Z,1001.11
2018-05-01T06:21:41.532Z,1000.88
2018-05-01T06:22:51.068Z,1000.96
2018-05-01T06:23:59.897Z,1001.04
2018-05-01T06:25:08.999Z,1000.79
2018-05-01T06:26:17.826Z,1001.07
2018-05-01T06:27:26.658Z,1001.04
2018-05-01T06:28:35.589Z,1000.95
2018-05-01T06:29:44.416Z,1001.06
2018-05-01T06:30:53.246Z,1001.02
2018-05-01T06:32:02.077Z,1001.06
2018-05-01T06:33:10.910Z,1001.16
2018-05-01T06:34:20.616Z,1001.13
2018-05-01T06:35:29.446Z,1001.19
2018-05-01T06:36:38.273Z,1001.2
2018-05-01T06:37:47.390Z,1001.24
2018-05-01T06:38:56.224Z,1001.17
2018-05-01T06:40:05.052Z,1001.2
2018-05-01T06:41:13.880Z,1001.27
2018-05-01T06:42:22.715Z,1001.27
2018-05-01T06:43:31.551Z,1001.29
2018-05-01T06:44:40.384Z,1001.4
2018-05-01T06:45:49.497Z,1001.3
2018-05-01T06:46:58.326Z,1001.36
2018-05-01T06:48:07.158Z,1001.49
2018-05-01T06:49:15.992Z,1001.42
2018-05-01T06:50:25.372Z,1001.46
2018-05-01T06:51:34.203Z,1001.35
2018-05-01T06:52:43.036Z,1001.48
2018-05-01T06:53:51.859Z,1001.43
2018-05-01T06:55:00.960Z,1001.48
2018-05-01T06:56:09.792Z,1001.56
2018-05-01T06:57:18.896Z,1001.4
2018-05-01T06:58:28.005Z,1001.62
2018-05-01T06:59:36.837Z,1001.61
2018-05-01T07:00:45.662Z,1001.57
2018-05-01T07:01:54.489Z,1001.55
2018-05-01T07:03:03.320Z,1001.56
2018-05-01T07:04:12.244Z,1001.67
2018-05-01T07:05:21.776Z,1001.77
2018-05-01T07:06:30.608Z,1001.71
2018-05-01T07:07:39.440Z,1001.74
2018-05-01T07:08:48.547Z,1001.7
2018-05-01T07:09:57.427Z,1001.78
2018-05-01T07:11:06.206Z,1001.8
2018-05-01T07:12:15.036Z,1001.78
2018-05-01T07:13:23.865Z,1001.92
2018-05-01T07:14:32.699Z,1001.89
2018-05-01T07:15:41.862Z,1001.94
2018-05-01T07:16:51.071Z,1001.89
2018-05-01T07:17:59.903Z,1001.93
2018-05-01T07:19:08.735Z,1001.82
2018-05-01T07:20:17.561Z,1002.04
2018-05-01T07:21:26.395Z,1001.94
2018-05-01T07:22:36.279Z,1002.04
2018-05-01T07:23:45.746Z,1002.1
2018-05-01T07:24:54.780Z,1002.22
2018-05-01T07:26:03.608Z,1002.06
2018-05-01T07:27:12.438Z,1002.13
2018-05-01T07:28:21.269Z,1002.08
2018-05-01T07:29:30.097Z,1002.25
2018-05-01T07:30:38.927Z,1002.19
2018-05-01T07:31:47.762Z,1002.34
2018-05-01T07:32:56.589Z,1002.27
2018-05-01T07:34:05.696Z,1002.27
2018-05-01T07:35:15.079Z,1002.27
2018-05-01T07:36:23.917Z,1002.35
2018-05-01T07:37:33.310Z,1002.3
2018-05-01T07:38:42.409Z,1002.28
2018-05-01T07:39:51.239Z,1002.32
2018-05-01T07:41:00.065Z,1002.37
2018-05-01T07:42:08.894Z,1002.28
2018-05-01T07:43:17.722Z,1002.3
2018-05-01T07:44:26.832Z,1002.31
2018-05-01T07:45:35.663Z,1002.45
2018-05-01T07:46:44.497Z,1002.28
2018-05-01T07:47:53.327Z,1002.46
2018-05-01T07:49:02.164Z,1002.46
2018-05-01T07:50:11.625Z,1002.43
2018-05-01T07:51:20.733Z,1002.46
2018-05-01T07:52:29.556Z,1002.55
2018-05-01T07:53:38.383Z,1002.54
2018-05-01T07:54:47.487Z,1002.52
2018-05-01T07:55:56.318Z,1002.51
2018-05-01T07:57:05.296Z,1002.54
2018-05-01T07:58:14.128Z,1002.56
2018-05-01T07:59:23.234Z,1002.66
2018-05-01T08:00:32.065Z,1002.72
2018-05-01T08:01:40.898Z,1002.74
2018-05-01T08:02:50.040Z,1002.75
2018-05-01T08:03:58.874Z,1002.84
2018-05-01T08:05:07.704Z,1002.88
2018-05-01T08:06:16.536Z,1002.8
2018-05-01T08:07:25.366Z,1003.04
2018-05-01T08:08:34.195Z,1002.91
2018-05-01T08:09:43.026Z,1002.89
2018-05-01T08:10:51.859Z,1002.96
2018-05-01T08:12:00.711Z,1002.9
2018-05-01T08:13:09.531Z,1003.01
2018-05-01T08:14:18.886Z,1002.96
2018-05-01T08:15:27.990Z,1003.15
2018-05-01T08:16:36.822Z,1002.99
2018-05-01T08:17:45.931Z,1003
2018-05-01T08:18:55.038Z,1003
2018-05-01T08:20:03.965Z,1003.05
2018-05-01T08:21:13.079Z,1003.17
2018-05-01T08:22:21.912Z,1003.14
2018-05-01T08:23:31.024Z,1003.31
2018-05-01T08:24:40.139Z,1003.16
2018-05-01T08:25:50.365Z,1003.21
2018-05-01T08:26:59.196Z,1003.29
2018-05-01T08:28:08.026Z,1003.4
2018-05-01T08:29:16.864Z,1003.54
2018-05-01T08:30:25.749Z,1003.26
2018-05-01T08:31:35.405Z,1003.35
2018-05-01T08:32:44.239Z,1003.38
2018-05-01T08:33:53.068Z,1003.51
2018-05-01T08:35:01.916Z,1003.61
2018-05-01T08:36:10.845Z,1003.55
2018-05-01T08:37:19.912Z,1003.59
2018-05-01T08:38:29.497Z,1003.68
2018-05-01T08:39:38.397Z,1003.48
2018-05-01T08:40:47.562Z,1003.56
2018-05-01T08:41:56.561Z,1003.54
2018-05-01T08:43:05.695Z,1003.66
2018-05-01T08:44:14.645Z,1003.77
2018-05-01T08:45:24.026Z,1003.68
2018-05-01T08:46:32.939Z,1003.69
2018-05-01T08:47:41.937Z,1003.71
2018-05-01T08:48:50.919Z,1003.72
2018-05-01T08:49:59.751Z,1004.19
2018-05-01T08:51:08.578Z,1003.76
2018-05-01T08:52:17.685Z,1003.95
2018-05-01T08:53:26.514Z,1003.71
2018-05-01T08:54:35.929Z,1003.88
2018-05-01T08:55:45.032Z,1003.95
2018-05-01T08:56:53.867Z,1003.92
2018-05-01T08:58:02.979Z,1003.87
2018-05-01T08:59:11.803Z,1003.99
2018-05-01T09:00:20.734Z,1003.98
2018-05-01T09:01:29.563Z,1003.94
2018-05-01T09:02:38.394Z,1004.11
2018-05-01T09:03:48.323Z,1003.98
2018-05-01T09:04:57.157Z,1004.13
2018-05-01T09:06:06.413Z,1004.19
2018-05-01T09:07:15.530Z,1004.19
2018-05-01T09:08:24.364Z,1004.2
2018-05-01T09:09:33.527Z,1004.25
2018-05-01T09:10:42.299Z,1004.12
2018-05-01T09:11:51.278Z,1004.41
2018-05-01T09:13:00.384Z,1004.19
2018-05-01T09:14:09.217Z,1004.39
2018-05-01T09:15:18.049Z,1004.42
2018-05-01T09:16:27.172Z,1004.47
2018-05-01T09:17:36.112Z,1004.38
2018-05-01T09:18:45.297Z,1004.52
2018-05-01T09:19:54.125Z,1004.42
2018-05-01T09:21:02.956Z,1004.5
2018-05-01T09:22:11.820Z,1004.56
2018-05-01T09:23:20.620Z,1004.51
2018-05-01T09:24:29.453Z,1004.44
2018-05-01T09:25:38.563Z,1004.64
2018-05-01T09:26:47.725Z,1004.68
2018-05-01T09:27:56.831Z,1004.78
2018-05-01T09:29:05.936Z,1004.72
2018-05-01T09:30:14.768Z,1004.83
2018-05-01T09:31:23.599Z,1004.81
2018-05-01T09:32:32.428Z,1004.81
2018-05-01T09:33:41.261Z,1004.74
2018-05-01T09:34:50.519Z,1004.88
2018-05-01T09:35:59.350Z,1004.96
2018-05-01T09:37:08.187Z,1004.92
2018-05-01T09:38:17.017Z,1004.74
2018-05-01T09:39:25.849Z,1004.9
2018-05-01T09:40:34.982Z,1004.99
2018-05-01T09:41:43.812Z,1005.01
2018-05-01T09:42:52.640Z,1004.94
2018-05-01T09:44:01.472Z,1005.05
2018-05-01T09:45:10.577Z,1004.96
2018-05-01T09:46:19.835Z,1005.05
2018-05-01T09:47:28.687Z,1004.99
2018-05-01T09:48:38.135Z,1005.22
2018-05-01T09:49:46.971Z,1005.14
2018-05-01T09:50:55.801Z,1005.29
2018-05-01T09:52:04.632Z,1005.26
2018-05-01T09:53:13.467Z,1005.2
2018-05-01T09:54:23.325Z,1005.22
2018-05-01T09:55:32.451Z,1005.28
2018-05-01T09:56:41.284Z,1005.35
2018-05-01T09:57:50.162Z,1005.46
2018-05-01T09:58:58.995Z,1005.39
2018-05-01T10:00:07.839Z,1005.39
2018-05-01T10:01:16.667Z,1005.39
2018-05-01T10:02:25.498Z,1005.35
2018-05-01T10:03:34.531Z,1005.49
2018-05-01T10:04:43.638Z,1005.52
2018-05-01T10:05:52.470Z,1005.55
2018-05-01T10:07:01.308Z,1005.67
2018-05-01T10:08:10.144Z,1005.5
2018-05-01T10:09:19.375Z,1005.64
2018-05-01T10:10:28.209Z,1005.7
2018-05-01T10:11:37.043Z,1005.66
2018-05-01T10:12:45.888Z,1005.59
2018-05-01T10:13:54.994Z,1005.76
2018-05-01T10:15:03.927Z,1005.83
2018-05-01T10:16:12.756Z,1005.64
2018-05-01T10:17:21.590Z,1005.73
2018-05-01T10:18:30.699Z,1005.81
2018-05-01T10:19:39.529Z,1005.83
2018-05-01T10:20:48.511Z,1005.87
2018-05-01T10:21:57.346Z,1005.77
2018-05-01T10:23:06.183Z,1005.85
2018-05-01T10:24:15.015Z,1005.92
2018-05-01T10:25:23.849Z,1005.93
2018-05-01T10:26:32.982Z,1005.96
2018-05-01T10:27:42.092Z,1005.85
2018-05-01T10:28:50.922Z,1005.94
2018-05-01T10:30:00.038Z,1005.95
2018-05-01T10:31:09.145Z,1006.02
2018-05-01T10:32:18.125Z,1006.03
2018-05-01T10:33:26.958Z,1006.15
2018-05-01T10:34:35.791Z,1006.12
2018-05-01T10:35:44.623Z,1006.06
2018-05-01T10:36:53.457Z,1006.08
2018-05-01T10:38:02.440Z,1006.1
2018-05-01T10:39:11.272Z,1006.1
2018-05-01T10:40:20.106Z,1006.13
2018-05-01T10:41:28.941Z,1006.07
2018-05-01T10:42:37.778Z,1006.26
2018-05-01T10:43:46.609Z,1006.19
2018-05-01T10:44:55.440Z,1006.21
2018-05-01T10:46:04.274Z,1006.32
2018-05-01T10:47:13.109Z,1006.3
2018-05-01T10:48:22.020Z,1006.37
2018-05-01T10:49:30.790Z,1006.47
2018-05-01T10:50:39.609Z,1006.42
2018-05-01T10:51:48.442Z,1006.43
2018-05-01T10:52:57.286Z,1006.35
2018-05-01T10:54:06.108Z,1006.54
2018-05-01T10:55:14.994Z,1006.49
2018-05-01T10:56:24.115Z,1006.51
2018-05-01T10:57:32.970Z,1006.55
2018-05-01T10:58:42.088Z,1006.52
2018-05-01T10:59:51.211Z,1006.53
2018-05-01T11:01:00.156Z,1006.59
2018-05-01T11:02:09.004Z,1006.81
2018-05-01T11:03:17.848Z,1006.76
2018-05-01T11:04:26.690Z,1006.58
2018-05-01T11:05:35.549Z,1006.83
2018-05-01T11:06:44.492Z,1006.65
2018-05-01T11:07:53.436Z,1006.79
2018-05-01T11:09:02.282Z,1006.78
2018-05-01T11:10:11.402Z,1006.82
2018-05-01T11:11:20.251Z,1006.99
2018-05-01T11:12:29.395Z,1007
2018-05-01T11:13:38.237Z,1006.89
2018-05-01T11:14:47.080Z,1006.92
2018-05-01T11:15:55.925Z,1006.97
2018-05-01T11:17:04.771Z,1007.09
2018-05-01T11:18:14.315Z,1007.02
2018-05-01T11:19:23.433Z,1007.05
2018-05-01T11:20:32.267Z,1007.02
2018-05-01T11:21:41.100Z,1007.08
2018-05-01T11:22:50.211Z,1007.06
2018-05-01T11:23:59.296Z,1007.1
2018-05-01T11:25:08.404Z,1007.15
2018-05-01T11:26:17.409Z,1007.24
2018-05-01T11:27:26.071Z,1007.19
2018-05-01T11:28:35.281Z,1007.32
2018-05-01T11:29:44.522Z,1007.25
2018-05-01T11:30:53.352Z,1007.25
2018-05-01T11:32:02.186Z,1007.44
2018-05-01T11:33:11.019Z,1007.41
2018-05-01T11:34:19.855Z,1007.41
2018-05-01T11:35:29.061Z,1007.51
2018-05-01T11:36:38.174Z,1007.39
2018-05-01T11:37:47.281Z,1007.5
2018-05-01T11:38:56.110Z,1007.47
2018-05-01T11:40:04.940Z,1007.49
2018-05-01T11:41:13.928Z,1007.64
2018-05-01T11:42:23.033Z,1007.73
2018-05-01T11:43:31.865Z,1007.67
2018-05-01T11:44:40.698Z,1007.5
2018-05-01T11:45:49.531Z,1007.75
2018-05-01T11:46:58.463Z,1007.78
2018-05-01T11:48:07.295Z,1007.77
2018-05-01T11:49:16.128Z,1007.82
2018-05-01T11:50:24.962Z,1007.84
2018-05-01T11:51:33.795Z,1007.79
2018-05-01T11:52:42.681Z,1007.93
2018-05-01T11:53:51.513Z,1007.92
2018-05-01T11:55:00.623Z,1008.06
2018-05-01T11:56:09.736Z,1007.96
2018-05-01T11:57:18.576Z,1008.02
2018-05-01T11:58:27.711Z,1008.14
2018-05-01T11:59:36.559Z,1008.07
2018-05-01T12:00:45.389Z,1008.07
2018-05-01T12:01:54.221Z,1008.13
2018-05-01T12:03:03.332Z,1008.26
2018-05-01T12:04:12.311Z,1008.24
2018-05-01T12:05:21.418Z,1008.27
2018-05-01T12:06:30.252Z,1008.23
2018-05-01T12:07:39.085Z,1008.39
2018-05-01T12:08:47.919Z,1008.29
2018-05-01T12:09:56.749Z,1008.3
2018-05-01T12:11:05.585Z,1008.35
2018-05-01T12:12:14.412Z,1008.29
2018-05-01T12:13:23.245Z,1008.4
2018-05-01T12:14:32.077Z,1008.41
2018-05-01T12:15:41.012Z,1008.47
2018-05-01T12:16:50.125Z,1008.47
2018-05-01T12:17:58.959Z,1008.61
2018-05-01T12:19:07.793Z,1008.5
2018-05-01T12:20:16.902Z,1008.48
2018-05-01T12:21:25.882Z,1008.59
2018-05-01T12:22:34.716Z,1008.55
2018-05-01T12:23:43.604Z,1008.54
2018-05-01T12:24:52.708Z,1008.59
2018-05-01T12:26:01.536Z,1008.58
2018-05-01T12:27:10.621Z,1008.67
2018-05-01T12:28:19.729Z,1008.54
2018-05-01T12:29:28.561Z,1008.72
2018-05-01T12:30:37.669Z,1008.63
2018-05-01T12:31:46.505Z,1008.78
2018-05-01T12:32:55.335Z,1008.86
2018-05-01T12:34:04.167Z,1008.8
2018-05-01T12:35:12.999Z,1008.82
2018-05-01T12:36:21.876Z,1008.77
2018-05-01T12:37:31.409Z,1008.83
2018-05-01T12:38:40.611Z,1008.82
2018-05-01T12:39:49.444Z,1008.9
2018-05-01T12:40:58.280Z,1008.88
2018-05-01T12:42:07.111Z,1009
2018-05-01T12:43:15.940Z,1009.01
2018-05-01T12:44:25.048Z,1009.02
2018-05-01T12:45:33.882Z,1009.04
2018-05-01T12:46:42.712Z,1009.07
2018-05-01T12:47:51.550Z,1009.1
2018-05-01T12:49:00.386Z,1009.18
2018-05-01T12:50:09.643Z,1009.12
2018-05-01T12:51:18.474Z,1009.15
2018-05-01T12:52:27.305Z,1009.17
2018-05-01T12:53:36.143Z,1009.16
2018-05-01T12:54:44.972Z,1009.27
2018-05-01T12:55:54.104Z,1009.28
2018-05-01T12:57:02.936Z,1009.26
2018-05-01T12:58:12.043Z,1009.37
2018-05-01T12:59:20.874Z,1009.33
2018-05-01T13:00:29.706Z,1009.35
2018-05-01T13:01:38.689Z,1009.38
2018-05-01T13:02:47.521Z,1009.36
2018-05-01T13:03:56.354Z,1009.38
2018-05-01T13:05:05.264Z,1009.4
2018-05-01T13:06:14.018Z,1009.48
2018-05-01T13:07:23.002Z,1009.39
2018-05-01T13:08:31.836Z,1009.4
2018-05-01T13:09:40.667Z,1009.43
2018-05-01T13:10:49.502Z,1009.43
2018-05-01T13:11:58.331Z,1009.59
2018-05-01T13:13:07.465Z,1009.59
2018-05-01T13:14:16.302Z,1009.66
2018-05-01T13:15:25.258Z,1009.62
2018-05-01T13:16:34.026Z,1009.62
2018-05-01T13:17:43.132Z,1009.76
2018-05-01T13:18:52.062Z,1009.74
2018-05-01T13:20:00.906Z,1009.69
2018-05-01T13:21:09.740Z,1009.67
2018-05-01T13:22:18.579Z,1009.75
2018-05-01T13:23:27.411Z,1009.73
2018-05-01T13:24:36.346Z,1009.62
2018-05-01T13:25:45.180Z,1009.63
2018-05-01T13:26:54.016Z,1009.76
2018-05-01T13:28:02.850Z,1009.79
2018-05-01T13:29:11.682Z,1009.74
2018-05-01T13:30:21.114Z,1009.78
2018-05-01T13:31:30.227Z,1009.83
2018-05-01T13:32:39.184Z,1009.83
2018-05-01T13:33:47.899Z,1009.78
2018-05-01T13:34:57.010Z,1009.79
2018-05-01T13:36:05.842Z,1009.82
2018-05-01T13:37:14.701Z,1009.79
2018-05-01T13:38:23.559Z,1009.83
2018-05-01T13:39:32.943Z,1009.88
2018-05-01T13:40:42.055Z,1009.99
2018-05-01T13:41:51.754Z,1010.05
2018-05-01T13:43:00.882Z,1009.98
2018-05-01T13:44:09.714Z,1009.96
2018-05-01T13:45:18.564Z,1010.01
2018-05-01T13:46:28.261Z,1010.08
2018-05-01T13:47:37.096Z,1010.03
2018-05-01T13:48:45.935Z,1010.11
2018-05-01T13:49:55.416Z,1010.06
2018-05-01T13:51:04.253Z,1010.15
2018-05-01T13:52:13.088Z,1010.09
2018-05-01T13:53:21.921Z,1010.09
2018-05-01T13:54:30.756Z,1010.17
2018-05-01T13:55:39.863Z,1010.2